Live aus Altenrhein
LIVE
LSZR 230820Z VRB02KT 9999 FEW070 19/11 Q1020 NOSIG RMK E

People´s Info Center:

Öffnungszeiten Mo-Fr, 8-18 Uhr

 

info@peoples.ch

 
Aus Österreich:

T: +43 (0)5572 203 610

 

Aus CH / LI / DE:

T: +41 (0)71 858 51 60

 

Kann ich bei People’s auch Pauschalangebote buchen?

 

Über unsere Reiseveranstalter können Pauschalangebote für alle Destinationen gebucht werden. Bei People’s Viennaline wird lediglich der Flug angeboten.